createdAt,value
2022-12-08T00:01:37.177Z,82.03
2022-12-08T00:04:07.989Z,83.37
2022-12-08T00:07:03.161Z,82.71
2022-12-08T00:09:38.629Z,82.37
2022-12-08T00:12:21.144Z,82.05
2022-12-08T00:14:50.156Z,81.87
2022-12-08T00:17:21.577Z,82.45
2022-12-08T00:19:54.629Z,83.25
2022-12-08T00:22:30.463Z,84.21
2022-12-08T00:24:57.451Z,83.29
2022-12-08T00:27:25.837Z,82.12
2022-12-08T00:29:55.967Z,83.06
2022-12-08T00:32:28.281Z,83.57
2022-12-08T00:34:59.608Z,83.86
2022-12-08T00:37:38.506Z,82.61
2022-12-08T00:40:09.061Z,83.48
2022-12-08T00:42:44.286Z,83.42
2022-12-08T00:45:24.072Z,84.11
2022-12-08T00:47:55.477Z,82.32
2022-12-08T00:50:25.431Z,81.49
2022-12-08T00:52:56.497Z,82.32
2022-12-08T00:55:43.717Z,81.27
2022-12-08T00:58:25.349Z,82.65
2022-12-08T01:00:56.167Z,82.96
2022-12-08T01:03:29.124Z,81.88
2022-12-08T01:06:06.249Z,82.82
2022-12-08T01:08:37.653Z,82.96
2022-12-08T01:11:16.638Z,84.17
2022-12-08T01:13:44.818Z,83.35
2022-12-08T01:16:34.537Z,84.03
2022-12-08T01:19:05.609Z,83.53
2022-12-08T01:21:34.282Z,83.96
2022-12-08T01:24:02.880Z,82.48
2022-12-08T01:26:47.337Z,82.29
2022-12-08T01:29:30.357Z,82.68
2022-12-08T01:32:08.172Z,82.89
2022-12-08T01:35:12.289Z,82.21
2022-12-08T01:37:46.191Z,82.56
2022-12-08T01:40:16.549Z,82.29
2022-12-08T01:42:43.717Z,82.56
2022-12-08T01:45:40.659Z,83.50
2022-12-08T01:48:15.405Z,84.77
2022-12-08T01:51:01.773Z,84.18
2022-12-08T01:57:24.211Z,83.58
2022-12-08T02:00:06.945Z,83.17
2022-12-08T02:05:58.902Z,84.14
2022-12-08T02:08:27.666Z,83.09
2022-12-08T02:14:32.526Z,82.64
2022-12-08T02:17:37.029Z,83.13
2022-12-08T02:20:18.244Z,83.96
2022-12-08T02:23:25.323Z,83.26
2022-12-08T02:26:15.793Z,82.43
2022-12-08T02:29:17.322Z,83.00
2022-12-08T02:31:56.522Z,83.49
2022-12-08T02:34:51.975Z,83.40
2022-12-08T02:37:25.366Z,82.85
2022-12-08T02:40:17.084Z,83.15
2022-12-08T02:43:02.729Z,83.67
2022-12-08T02:45:41.490Z,83.46
2022-12-08T02:48:09.547Z,82.95
2022-12-08T02:50:36.792Z,81.88
2022-12-08T02:55:38.316Z,82.17
2022-12-08T02:58:28.481Z,81.42
2022-12-08T03:01:28.779Z,81.69
2022-12-08T03:04:20.535Z,81.40
2022-12-08T03:06:54.182Z,81.26
2022-12-08T03:13:36.172Z,80.80
2022-12-08T03:16:09.504Z,80.87
2022-12-08T03:18:40.447Z,80.94
2022-12-08T03:21:08.805Z,81.54
2022-12-08T03:23:38.996Z,82.22
2022-12-08T03:26:13.708Z,81.49
2022-12-08T03:28:41.989Z,81.51
2022-12-08T03:31:13.153Z,80.62
2022-12-08T03:33:43.639Z,79.91
2022-12-08T03:36:12.614Z,80.11
2022-12-08T03:38:41.975Z,80.71
2022-12-08T03:41:21.553Z,80.74
2022-12-08T03:44:12.791Z,80.58
2022-12-08T03:46:40.572Z,80.75
2022-12-08T03:49:07.400Z,81.29
2022-12-08T03:51:40.087Z,81.58
2022-12-08T03:54:09.642Z,81.62
2022-12-08T03:56:48.424Z,81.84
2022-12-08T03:59:20.453Z,81.07
2022-12-08T04:01:47.564Z,80.98
2022-12-08T04:04:19.170Z,81.71
2022-12-08T04:06:46.251Z,81.50
2022-12-08T04:09:21.112Z,79.81
2022-12-08T04:11:50.318Z,79.91
2022-12-08T04:14:17.182Z,80.16
2022-12-08T04:16:48.774Z,80.42
2022-12-08T04:19:18.646Z,79.91
2022-12-08T04:21:49.611Z,79.18
2022-12-08T04:24:16.549Z,80.16
2022-12-08T04:30:12.238Z,79.16
2022-12-08T04:32:44.221Z,79.21
2022-12-08T04:35:13.968Z,79.27
2022-12-08T04:37:40.994Z,80.45
2022-12-08T04:40:17.166Z,79.17
2022-12-08T04:42:44.359Z,79.91
2022-12-08T04:45:16.657Z,80.65
2022-12-08T04:47:43.548Z,80.24
2022-12-08T04:50:11.817Z,81.24
2022-12-08T04:52:42.207Z,80.59
2022-12-08T04:55:13.363Z,81.17
2022-12-08T04:57:40.293Z,80.29
2022-12-08T05:06:53.205Z,80.57
2022-12-08T05:09:20.147Z,80.18
2022-12-08T05:11:48.992Z,79.73
2022-12-08T05:14:20.342Z,80.64
2022-12-08T05:16:47.651Z,80.94
2022-12-08T05:19:15.689Z,80.82
2022-12-08T05:21:51.703Z,79.42
2022-12-08T05:28:17.634Z,78.30
2022-12-08T05:30:47.993Z,78.19
2022-12-08T05:33:15.200Z,79.72
2022-12-08T05:35:45.022Z,78.58
2022-12-08T05:38:13.689Z,78.15
2022-12-08T05:40:42.536Z,77.83
2022-12-08T05:43:10.661Z,77.64
2022-12-08T05:45:37.591Z,78.04
2022-12-08T05:48:20.633Z,77.67
2022-12-08T05:50:51.700Z,78.77
2022-12-08T05:53:23.047Z,79.16
2022-12-08T05:55:50.150Z,79.25
2022-12-08T05:58:19.606Z,78.95
2022-12-08T06:00:58.422Z,79.61
2022-12-08T06:03:32.721Z,79.04
2022-12-08T06:05:59.675Z,79.65
2022-12-08T06:08:30.162Z,79.31
2022-12-08T06:10:56.981Z,78.67
2022-12-08T06:16:52.291Z,78.54
2022-12-08T06:19:19.486Z,79.82
2022-12-08T06:21:46.300Z,78.24
2022-12-08T06:24:13.292Z,77.65
2022-12-08T06:26:41.747Z,77.77
2022-12-08T06:29:08.696Z,78.13
2022-12-08T06:31:35.881Z,78.57
2022-12-08T06:38:02.439Z,78.02
2022-12-08T06:40:29.305Z,77.90
2022-12-08T06:42:56.233Z,77.35
2022-12-08T06:45:23.022Z,77.79
2022-12-08T06:47:51.349Z,77.33
2022-12-08T06:50:18.293Z,77.04
2022-12-08T06:52:55.929Z,77.63
2022-12-08T06:58:18.919Z,77.92
2022-12-08T07:03:27.004Z,77.85
2022-12-08T07:06:03.319Z,78.45
2022-12-08T07:14:46.147Z,77.15
2022-12-08T07:24:19.588Z,77.90
2022-12-08T07:26:46.434Z,78.03
2022-12-08T07:29:23.128Z,78.66
2022-12-08T07:31:55.946Z,78.02
2022-12-08T07:34:22.889Z,78.01
2022-12-08T07:36:52.646Z,78.38
2022-12-08T07:39:19.618Z,78.73
2022-12-08T07:41:46.576Z,78.74
2022-12-08T07:44:13.470Z,78.69
2022-12-08T07:46:43.550Z,79.70
2022-12-08T07:49:10.479Z,78.13
2022-12-08T07:51:37.340Z,78.67
2022-12-08T07:54:04.330Z,78.33
2022-12-08T07:56:34.234Z,78.39
2022-12-08T07:59:01.728Z,78.16
2022-12-08T08:01:31.458Z,77.31
2022-12-08T08:04:08.473Z,77.38
2022-12-08T08:06:37.213Z,77.52
2022-12-08T08:09:04.785Z,78.53
2022-12-08T08:11:37.764Z,77.16
2022-12-08T08:14:04.767Z,77.54
2022-12-08T08:16:38.717Z,78.19
2022-12-08T08:19:09.652Z,76.88
2022-12-08T08:21:45.836Z,77.59
2022-12-08T08:24:22.558Z,78.01
2022-12-08T08:27:01.388Z,77.92
2022-12-08T08:29:30.692Z,77.40
2022-12-08T08:31:57.907Z,77.47
2022-12-08T08:34:27.798Z,77.95
2022-12-08T08:36:57.449Z,77.37
2022-12-08T08:39:35.222Z,76.21
2022-12-08T08:42:02.465Z,77.03
2022-12-08T08:44:35.083Z,76.81
2022-12-08T08:47:05.221Z,77.08
2022-12-08T08:49:39.345Z,76.53
2022-12-08T08:52:11.636Z,76.66
2022-12-08T08:54:44.608Z,76.34
2022-12-08T08:57:20.747Z,76.93
2022-12-08T08:59:54.294Z,75.97
2022-12-08T09:02:48.354Z,74.69
2022-12-08T09:05:16.905Z,76.23
2022-12-08T09:07:48.100Z,74.50
2022-12-08T09:10:15.531Z,74.90
2022-12-08T09:12:49.615Z,75.11
2022-12-08T09:15:23.352Z,76.79
2022-12-08T09:17:53.349Z,74.03
2022-12-08T09:20:20.458Z,74.19
2022-12-08T09:22:52.694Z,73.49
2022-12-08T09:25:24.453Z,73.74
2022-12-08T09:27:56.857Z,74.08
2022-12-08T09:30:29.445Z,73.93
2022-12-08T09:32:58.943Z,75.16
2022-12-08T09:35:31.856Z,73.70
2022-12-08T09:37:58.763Z,73.05
2022-12-08T09:41:01.406Z,73.37
2022-12-08T09:44:15.179Z,74.27
2022-12-08T09:46:47.900Z,75.69
2022-12-08T09:49:22.061Z,75.28
2022-12-08T09:51:52.486Z,74.32
2022-12-08T09:54:29.359Z,74.43
2022-12-08T09:57:07.632Z,73.99
2022-12-08T09:59:39.528Z,75.46
2022-12-08T10:02:21.357Z,74.70
2022-12-08T10:04:48.505Z,73.93
2022-12-08T10:07:39.363Z,71.60
2022-12-08T10:10:18.796Z,72.12
2022-12-08T10:12:46.588Z,72.84
2022-12-08T10:15:49.587Z,71.44
2022-12-08T10:18:28.654Z,72.00
2022-12-08T10:21:14.732Z,72.62
2022-12-08T10:23:48.959Z,72.92
2022-12-08T10:26:30.380Z,72.06
2022-12-08T10:29:02.551Z,71.90
2022-12-08T10:31:33.389Z,72.23
2022-12-08T10:34:15.022Z,71.02
2022-12-08T10:36:57.318Z,72.90
2022-12-08T10:39:35.959Z,71.51
2022-12-08T10:42:23.216Z,72.56
2022-12-08T10:45:10.611Z,72.97
2022-12-08T10:47:44.604Z,72.00
2022-12-08T10:50:28.134Z,73.12
2022-12-08T10:53:09.067Z,72.71
2022-12-08T10:55:46.662Z,72.69
2022-12-08T10:58:37.335Z,71.65
2022-12-08T11:01:44.488Z,72.40
2022-12-08T11:04:21.263Z,71.49
2022-12-08T11:06:56.486Z,72.00
2022-12-08T11:09:35.991Z,72.14
2022-12-08T11:12:23.796Z,72.74
2022-12-08T11:15:00.233Z,72.59
2022-12-08T11:17:28.865Z,72.83
2022-12-08T11:19:57.407Z,72.32
2022-12-08T11:22:34.404Z,72.14
2022-12-08T11:25:11.271Z,72.22
2022-12-08T11:27:43.733Z,74.79
2022-12-08T11:30:23.774Z,72.70
2022-12-08T11:33:01.750Z,73.44
2022-12-08T11:35:54.775Z,73.07
2022-12-08T11:38:24.588Z,72.72
2022-12-08T11:41:09.570Z,73.23
2022-12-08T11:43:59.520Z,72.29
2022-12-08T11:46:30.346Z,72.92
2022-12-08T11:49:07.247Z,73.06
2022-12-08T11:52:21.243Z,72.48
2022-12-08T11:55:07.378Z,71.59
2022-12-08T11:57:36.078Z,72.22
2022-12-08T12:00:23.713Z,72.78
2022-12-08T12:03:01.761Z,72.64
2022-12-08T12:06:09.280Z,72.72
2022-12-08T12:08:50.450Z,72.56
2022-12-08T12:11:57.682Z,71.93
2022-12-08T12:14:32.256Z,72.41
2022-12-08T12:17:30.243Z,70.97
2022-12-08T12:20:03.149Z,71.15
2022-12-08T12:22:39.242Z,71.43
2022-12-08T12:25:06.696Z,71.25
2022-12-08T12:27:40.740Z,72.23
2022-12-08T12:30:21.214Z,72.57
2022-12-08T12:33:09.296Z,71.67
2022-12-08T12:35:48.175Z,72.74
2022-12-08T12:38:49.711Z,71.21
2022-12-08T12:41:27.720Z,71.10
2022-12-08T12:44:18.724Z,71.90
2022-12-08T12:47:38.117Z,71.17
2022-12-08T12:50:10.452Z,71.32
2022-12-08T12:52:47.173Z,70.87
2022-12-08T12:55:21.536Z,71.48
2022-12-08T12:57:57.007Z,70.64
2022-12-08T13:00:26.798Z,71.49
2022-12-08T13:03:01.578Z,70.57
2022-12-08T13:05:28.720Z,69.06
2022-12-08T13:07:57.335Z,70.06
2022-12-08T13:10:39.676Z,68.91
2022-12-08T13:13:19.874Z,69.20
2022-12-08T13:16:01.027Z,70.46
2022-12-08T13:18:41.503Z,71.56
2022-12-08T13:21:19.122Z,71.38
2022-12-08T13:24:12.867Z,72.17
2022-12-08T13:27:17.754Z,72.94
2022-12-08T13:29:46.581Z,71.30
2022-12-08T13:32:13.515Z,71.70
2022-12-08T13:35:00.416Z,70.63
2022-12-08T13:37:52.434Z,70.88
2022-12-08T13:40:32.310Z,71.00
2022-12-08T13:43:23.642Z,71.12
2022-12-08T13:46:52.939Z,71.29
2022-12-08T13:57:37.805Z,72.69
2022-12-08T14:00:16.695Z,72.71
2022-12-08T14:02:57.189Z,72.78
2022-12-08T14:05:47.632Z,72.97
2022-12-08T14:08:58.920Z,73.24
2022-12-08T14:12:00.432Z,73.32
2022-12-08T14:15:04.983Z,73.29
2022-12-08T14:17:38.600Z,71.77
2022-12-08T14:20:57.879Z,72.00
2022-12-08T14:23:34.536Z,72.81
2022-12-08T14:26:11.476Z,72.47
2022-12-08T14:28:44.700Z,72.74
2022-12-08T14:31:14.911Z,73.21
2022-12-08T14:33:48.416Z,73.46
2022-12-08T14:36:26.127Z,73.21
2022-12-08T14:38:56.077Z,73.24
2022-12-08T14:41:35.083Z,73.14
2022-12-08T14:44:05.540Z,73.23
2022-12-08T14:46:36.043Z,73.18
2022-12-08T14:49:05.985Z,73.80
2022-12-08T14:51:37.061Z,74.52
2022-12-08T14:54:16.012Z,75.33
2022-12-08T14:56:59.022Z,73.80
2022-12-08T14:59:39.497Z,74.49
2022-12-08T15:02:10.524Z,73.44
2022-12-08T15:04:55.053Z,73.28
2022-12-08T15:07:44.511Z,73.93
2022-12-08T15:10:17.543Z,74.05
2022-12-08T15:13:23.423Z,74.33
2022-12-08T15:15:57.309Z,74.59
2022-12-08T15:18:41.401Z,75.20
2022-12-08T15:21:15.853Z,75.64
2022-12-08T15:23:50.337Z,75.50
2022-12-08T15:26:22.221Z,75.57
2022-12-08T15:28:49.165Z,75.54
2022-12-08T15:31:18.737Z,76.36
2022-12-08T15:33:46.073Z,75.62
2022-12-08T15:36:15.206Z,75.56
2022-12-08T15:38:43.587Z,75.91
2022-12-08T15:41:15.509Z,75.98
2022-12-08T15:43:45.609Z,75.56
2022-12-08T15:46:12.706Z,75.38
2022-12-08T15:48:58.356Z,75.27
2022-12-08T15:51:43.437Z,75.01
2022-12-08T15:54:16.792Z,75.52
2022-12-08T15:59:46.007Z,75.21
2022-12-08T16:02:20.904Z,76.04
2022-12-08T16:05:40.855Z,75.40
2022-12-08T16:07:57.403Z,75.53
2022-12-08T16:10:35.385Z,75.93
2022-12-08T16:13:56.764Z,76.14
2022-12-08T16:16:37.127Z,76.38
2022-12-08T16:19:07.580Z,76.09
2022-12-08T16:22:44.524Z,75.48
2022-12-08T16:24:29.251Z,74.09
2022-12-08T16:29:47.494Z,72.13
2022-12-08T16:32:18.039Z,71.30
2022-12-08T16:34:51.016Z,70.97
2022-12-08T16:37:28.858Z,73.26
2022-12-08T16:40:04.144Z,73.20
2022-12-08T16:42:55.252Z,71.83
2022-12-08T16:45:31.479Z,72.19
2022-12-08T16:48:16.791Z,73.45
2022-12-08T16:51:10.596Z,72.96
2022-12-08T16:53:46.674Z,74.25
2022-12-08T16:56:32.610Z,74.16
2022-12-08T16:59:04.065Z,70.71
2022-12-08T17:01:32.259Z,70.81
2022-12-08T17:06:53.233Z,70.51
2022-12-08T17:09:25.866Z,71.56
2022-12-08T17:12:01.837Z,72.72
2022-12-08T17:14:41.096Z,73.66
2022-12-08T17:17:09.433Z,74.64
2022-12-08T17:19:36.463Z,75.51
2022-12-08T17:22:07.643Z,75.79
2022-12-08T17:31:42.291Z,72.83
2022-12-08T17:34:17.095Z,72.42
2022-12-08T17:40:28.115Z,72.51
2022-12-08T17:43:46.466Z,70.58
2022-12-08T18:00:09.691Z,74.79
2022-12-08T18:02:41.031Z,74.94
2022-12-08T18:05:10.845Z,75.23
2022-12-08T18:07:40.395Z,75.88
2022-12-08T18:10:08.185Z,74.85
2022-12-08T18:12:38.835Z,74.81
2022-12-08T18:18:44.207Z,75.75
2022-12-08T18:21:23.263Z,76.22
2022-12-08T18:24:01.525Z,76.78
2022-12-08T18:26:39.593Z,76.63
2022-12-08T18:29:08.236Z,77.15
2022-12-08T18:32:31.507Z,73.37
2022-12-08T18:35:01.326Z,71.04
2022-12-08T18:37:28.753Z,72.11
2022-12-08T18:39:55.959Z,70.39
2022-12-08T18:42:30.389Z,70.54
2022-12-08T18:45:04.592Z,70.88
2022-12-08T18:47:33.855Z,72.02
2022-12-08T18:50:00.868Z,70.83
2022-12-08T18:52:32.325Z,70.90
2022-12-08T18:55:09.145Z,69.93
2022-12-08T19:01:04.540Z,71.17
2022-12-08T19:06:58.705Z,71.75
2022-12-08T19:09:27.114Z,72.15
2022-12-08T19:11:56.720Z,73.26
2022-12-08T19:15:00.582Z,70.49
2022-12-08T19:18:11.032Z,70.46
2022-12-08T19:25:06.127Z,70.43
2022-12-08T19:27:35.692Z,69.87
2022-12-08T19:30:12.414Z,71.97
2022-12-08T19:32:39.194Z,74.00
2022-12-08T19:35:13.291Z,71.81
2022-12-08T19:42:13.692Z,71.61
2022-12-08T19:44:52.825Z,73.48
2022-12-08T19:47:25.044Z,73.12
2022-12-08T19:50:30.852Z,72.40
2022-12-08T19:53:01.402Z,74.06
2022-12-08T19:55:31.151Z,72.00
2022-12-08T19:58:06.838Z,70.32
2022-12-08T20:00:41.221Z,71.55
2022-12-08T20:03:23.199Z,73.56
2022-12-08T20:06:00.702Z,71.90
2022-12-08T20:08:34.081Z,71.74
2022-12-08T20:14:45.496Z,73.71
2022-12-08T20:17:23.868Z,74.14
2022-12-08T20:20:07.062Z,75.10
2022-12-08T20:22:38.247Z,75.90
2022-12-08T20:25:07.286Z,75.64
2022-12-08T20:27:37.411Z,73.43
2022-12-08T20:30:05.028Z,72.35
2022-12-08T20:32:32.777Z,74.35
2022-12-08T20:34:59.725Z,75.30
2022-12-08T20:37:26.646Z,74.10
2022-12-08T20:39:53.501Z,71.68
2022-12-08T20:42:28.339Z,69.70
2022-12-08T20:44:56.810Z,72.15
2022-12-08T20:47:24.054Z,71.80
2022-12-08T20:49:53.672Z,70.50
2022-12-08T20:52:24.120Z,70.42
2022-12-08T20:54:50.828Z,71.52
2022-12-08T20:57:26.817Z,73.90
2022-12-08T20:59:53.976Z,73.92
2022-12-08T21:02:24.486Z,72.52
2022-12-08T21:04:51.460Z,71.98
2022-12-08T21:07:21.090Z,68.96
2022-12-08T21:09:48.046Z,68.62
2022-12-08T21:12:15.064Z,70.47
2022-12-08T21:14:45.482Z,71.45
2022-12-08T21:17:15.953Z,72.24
2022-12-08T21:20:13.995Z,71.89
2022-12-08T21:22:42.284Z,72.53
2022-12-08T21:25:12.604Z,74.39
2022-12-08T21:27:40.019Z,75.04
2022-12-08T21:30:12.385Z,75.55
2022-12-08T21:32:39.717Z,75.58
2022-12-08T21:35:07.422Z,75.79
2022-12-08T21:37:49.256Z,72.78
2022-12-08T21:40:21.653Z,72.88
2022-12-08T21:42:52.206Z,74.10
2022-12-08T21:45:27.705Z,74.32
2022-12-08T21:48:15.885Z,74.90
2022-12-08T21:54:18.741Z,71.44
2022-12-08T21:56:55.905Z,72.81
2022-12-08T21:59:22.994Z,72.34
2022-12-08T22:01:50.036Z,73.47
2022-12-08T22:04:22.592Z,74.86
2022-12-08T22:06:55.414Z,75.13
2022-12-08T22:12:59.533Z,72.89
2022-12-08T22:15:26.527Z,71.08
2022-12-08T22:18:06.677Z,69.98
2022-12-08T22:20:42.338Z,70.87
2022-12-08T22:23:18.021Z,72.50
2022-12-08T22:25:58.030Z,72.91
2022-12-08T22:28:46.924Z,74.75
2022-12-08T22:31:37.718Z,73.84
2022-12-08T22:34:28.797Z,75.82
2022-12-08T22:37:03.753Z,76.29
2022-12-08T22:39:38.889Z,74.44
2022-12-08T22:42:09.120Z,72.30
2022-12-08T22:51:37.696Z,75.65
2022-12-08T22:54:12.025Z,75.78
2022-12-08T22:56:53.475Z,74.04
2022-12-08T22:59:43.166Z,73.97
2022-12-08T23:02:16.153Z,74.11
2022-12-08T23:04:55.486Z,75.15
2022-12-08T23:07:29.584Z,75.69
2022-12-08T23:10:03.044Z,75.67
2022-12-08T23:12:46.330Z,73.38
2022-12-08T23:15:18.089Z,75.02
2022-12-08T23:17:48.728Z,74.90
2022-12-08T23:20:19.097Z,74.13
2022-12-08T23:22:53.943Z,77.26
2022-12-08T23:25:25.291Z,79.35
2022-12-08T23:27:52.510Z,81.02
2022-12-08T23:30:19.406Z,81.68
2022-12-08T23:32:56.810Z,81.19
2022-12-08T23:35:23.952Z,79.91
2022-12-08T23:37:53.766Z,76.76
2022-12-08T23:40:20.749Z,76.73
2022-12-08T23:42:47.516Z,75.22
2022-12-08T23:45:14.533Z,73.60
2022-12-08T23:47:44.207Z,74.34
2022-12-08T23:50:14.084Z,76.56
2022-12-08T23:52:41.087Z,75.51
2022-12-08T23:55:08.807Z,74.46
2022-12-08T23:57:37.586Z,77.51
